The Florida Keys Marathon Airport
KMTH : now visible

Airfield :











YOU CAN JOIN US ON...

 
LOGIN :

Register | Disclaimer

   EN    FR    IT 

 









Legend :    VFR   Marginal VFR   IFR   Intensive IFR   Very Intensive IFR
Visi :
Ceiling :
>= 8 km
>= 3000ft
5 to 8 km
1000 to 3000 ft
1500m to 5 km
500 to 1000 ft
800 to 1500m
200 to 500 ft
< 800m
< 200 ft
Symbols :   Thunderstorms  Fog  Heavy snow  Heavy precipitations  Wind > 20 kt






- Airport Elevation : 5 ft


KMTH - The Florida Keys Marathon

CURRENT METAR :
  • 060053Z AUTO 00000KT 10SM CLR 23/22 A3002 RMK AO2 SLP165 T02280217 $

EXPIRED METARs :
  • 052353Z AUTO 00000KT 10SM OVC065 23/22 A3001 RMK AO2 SLP161 60000 T02330217 10267 20233 53003 $
  • 052253Z AUTO 04003KT 10SM FEW022 SCT070 23/22 A3000 RMK AO2 SLP159 T02330217 $

TAF KMTH
Valid from the 06 at 00:00 until the 07 at 00:00 UTC


052339Z 0600/0624 VRB03KT P6SM SCT018 SCT070
FM060700 VRB03KT P6SM BKN008
FM061200 04005KT P6SM BKN010
FM061500 09005KT P6SM SCT018 BKN060
FM061800 14006KT P6SM SCT020 SCT060 BKN150
KZMA FIR / North America



MET'MAP, your aeronautical weather chart ! - Copyright ORBIFLY December 2007 - Disclaimer

ORBIFLY MET'MAP TEAM :

Programming & Development : Alexandra Zaïnal
Concept & original design : Baudouin d'Aumeries
Assistance for programming : Marc-Olivier Méhu
Technical & hardware support : Manuel Goepfert

Contact : metmap@orbifly.com




SOURCES & CREDITS :

   NOAA       Earth
Advisory